Terminal Aerodrome Forecast
Issued by NWS

Home | Current Version | Previous Version | Text Only | Print | Product List | Glossary On
Versions: 1 2 3 4 5 6 7 8 9 10 11 12 13 14 15 16 17 18
000
FTUS44 KSJT 202300
TAFBBD
TAF
KBBD 202320Z 2100/2124 09005KT P6SM OVC100
     FM210700 VRB03KT P6SM OVC015
     FM211600 10006KT P6SM BKN050=

USA.gov is the U.S. government's official web portal to all federal, state and local government web resources and services.